Time;durP1;ratioP1;P1;durP2;ratioP2;P2;SDS_P1;SDS_P2;PMS_P1;PMS_P2;Temp;Humidity;BMP_temperature;BMP_pressure;BME280_temperature;BME280_humidity;BME280_pressure;Samples;Min_cycle;Max_cycle;Signal;HPM_P1;HPM_P2
2023/01/07 00:01:30;;;;;;;24.45;18.67;;;11.10;99.90;;;;;;5018264;28;92490;-77
2023/01/07 00:03:58;;;;;;;27.10;18.42;;;11.10;99.90;;;;;;5001799;28;92523;-77
2023/01/07 00:06:27;;;;;;;24.83;18.23;;;11.10;99.90;;;;;;5018150;28;95703;-77
2023/01/07 00:08:56;;;;;;;26.08;18.70;;;11.20;99.90;;;;;;5018740;28;95979;-77
2023/01/07 00:11:35;;;;;;;24.35;18.20;;;11.20;99.90;;;;;;5036188;28;92543;-77
2023/01/07 00:14:04;;;;;;;24.90;18.33;;;11.30;99.90;;;;;;5018308;28;92549;-77
2023/01/07 00:16:33;;;;;;;22.40;17.15;;;11.20;99.90;;;;;;4999941;28;98130;-77
2023/01/07 00:19:03;;;;;;;24.33;17.88;;;11.30;99.90;;;;;;5017955;28;98287;-77
2023/01/07 00:21:30;;;;;;;23.10;15.98;;;11.20;99.90;;;;;;5017593;28;92471;-77
2023/01/07 00:24:03;;;;;;;25.33;18.38;;;11.30;99.90;;;;;;5001577;28;92566;-77
2023/01/07 00:26:32;;;;;;;20.52;16.15;;;11.30;99.90;;;;;;5018158;28;93221;-77
2023/01/07 00:28:59;;;;;;;21.92;16.48;;;11.30;99.90;;;;;;5018184;28;93102;-76
2023/01/07 00:31:32;;;;;;;23.35;18.45;;;11.30;99.90;;;;;;5018241;28;92477;-76
2023/01/07 00:36:30;;;;;;;24.88;18.80;;;11.40;99.90;;;;;;5017129;28;95828;-77
2023/01/07 00:39:00;;;;;;;25.80;18.17;;;11.40;99.90;;;;;;5017651;28;95986;-77
2023/01/07 00:41:28;;;;;;;22.85;16.77;;;11.50;99.90;;;;;;5034937;28;94741;-77
2023/01/07 00:43:55;;;;;;;24.05;18.80;;;11.50;99.90;;;;;;5018348;28;92699;-77
2023/01/07 00:46:23;;;;;;;25.00;18.92;;;11.50;99.90;;;;;;5017210;28;95927;-77
2023/01/07 00:48:50;;;;;;;26.38;19.00;;;11.50;99.90;;;;;;5017260;28;95789;-77
2023/01/07 00:51:18;;;;;;;25.77;18.52;;;11.50;99.90;;;;;;5017602;28;92990;-77
2023/01/07 00:53:45;;;;;;;24.00;17.67;;;11.50;99.90;;;;;;5017589;28;92555;-77
2023/01/07 00:56:14;;;;;;;27.25;19.58;;;11.60;99.90;;;;;;5035703;28;93750;-77
2023/01/07 00:58:41;;;;;;;24.27;18.60;;;11.60;99.90;;;;;;5017794;28;93454;-77
2023/01/07 01:01:09;;;;;;;25.15;19.30;;;11.60;99.90;;;;;;5000957;28;92405;-77
2023/01/07 01:03:38;;;;;;;24.98;19.30;;;11.60;99.90;;;;;;5017601;28;92538;-77
2023/01/07 01:06:10;;;;;;;21.80;16.88;;;11.70;99.90;;;;;;5016594;28;95678;-77
2023/01/07 01:08:40;;;;;;;24.77;19.27;;;11.70;99.90;;;;;;5016969;28;98386;-77
2023/01/07 01:11:09;;;;;;;23.67;17.75;;;11.60;99.90;;;;;;5017590;28;92426;-77
2023/01/07 01:13:37;;;;;;;26.05;18.48;;;11.70;99.90;;;;;;5017051;28;92501;-77
2023/01/07 01:16:12;;;;;;;25.38;19.52;;;11.70;99.90;;;;;;5017596;28;93588;-77
2023/01/07 01:18:39;;;;;;;;;;;11.70;99.90;;;;;;5035654;28;93017;-77
2023/01/07 01:21:08;;;;;;;22.50;17.88;;;11.60;99.90;;;;;;4998623;28;92514;-77
2023/01/07 01:23:36;;;;;;;23.67;18.30;;;11.70;99.90;;;;;;5014158;28;91959;-77
2023/01/07 01:26:08;;;;;;;27.02;20.08;;;11.70;99.90;;;;;;4996871;28;94938;-77
2023/01/07 01:28:35;;;;;;;24.45;19.05;;;11.70;99.90;;;;;;4996726;28;95652;-77
2023/01/07 01:31:03;;;;;;;27.08;18.17;;;11.80;99.90;;;;;;5012675;28;94985;-77
2023/01/07 01:33:40;;;;;;;25.00;19.65;;;11.80;99.90;;;;;;4998430;28;93096;-77
2023/01/07 01:36:10;;;;;;;26.88;19.65;;;11.80;99.90;;;;;;5013776;28;93551;-77
2023/01/07 01:38:39;;;;;;;25.23;19.35;;;11.80;99.90;;;;;;5013359;28;95614;-77
2023/01/07 01:41:07;;;;;;;25.30;19.00;;;11.80;99.90;;;;;;4997014;28;92444;-77
2023/01/07 01:43:39;;;;;;;28.27;20.33;;;11.80;99.90;;;;;;5013325;28;92556;-77
2023/01/07 01:46:16;;;;;;;29.67;20.88;;;11.80;99.90;;;;;;5013346;28;94985;-77
2023/01/07 01:48:55;;;;;;;25.13;19.20;;;11.90;99.90;;;;;;5013382;28;95650;-77
2023/01/07 01:51:26;;;;;;;28.83;19.40;;;11.80;99.90;;;;;;5013445;28;92567;-77
2023/01/07 01:53:55;;;;;;;28.42;20.02;;;11.80;99.90;;;;;;5014401;28;92460;-77
2023/01/07 01:56:28;;;;;;;28.15;20.63;;;11.80;99.90;;;;;;5012098;28;98063;-77
2023/01/07 01:59:01;;;;;;;31.07;20.07;;;11.90;99.90;;;;;;5012884;28;97876;-77
2023/01/07 02:01:31;;;;;;;28.65;20.13;;;11.80;99.90;;;;;;4999582;28;92716;-77
2023/01/07 02:04:03;;;;;;;34.05;21.95;;;11.80;99.90;;;;;;5000952;28;93180;-77
2023/01/07 02:06:33;;;;;;;29.73;20.80;;;11.80;99.90;;;;;;5000330;28;96505;-77
2023/01/07 02:09:03;;;;;;;34.28;22.23;;;11.90;99.90;;;;;;5000300;28;95726;-77
2023/01/07 02:11:52;;;;;;;30.60;21.52;;;11.90;99.90;;;;;;5016725;28;92473;-77
2023/01/07 02:14:47;;;;;;;28.13;20.20;;;11.90;99.90;;;;;;5018496;28;91656;-77
2023/01/07 02:17:45;;;;;;;34.33;22.30;;;11.90;99.90;;;;;;5016747;28;95517;-77
2023/01/07 02:20:27;;;;;;;28.90;19.67;;;11.90;99.90;;;;;;5016295;28;95902;-77
2023/01/07 02:23:13;;;;;;;28.17;21.42;;;11.90;99.90;;;;;;5016612;28;94857;-77
2023/01/07 02:26:00;;;;;;;30.52;21.02;;;11.90;99.90;;;;;;5016451;28;92589;-77
2023/01/07 02:28:27;;;;;;;27.90;20.88;;;11.90;99.90;;;;;;5016777;28;93202;-77
2023/01/07 02:31:30;;;;;;;28.08;21.30;;;11.80;99.90;;;;;;4999805;28;95783;-77
2023/01/07 02:34:10;;;;;;;28.65;21.40;;;11.90;99.90;;;;;;4999722;28;92813;-77
2023/01/07 02:36:52;;;;;;;26.90;20.02;;;11.90;99.90;;;;;;5016213;28;92454;-77
2023/01/07 02:39:44;;;;;;;28.90;20.48;;;11.90;99.90;;;;;;5016400;28;95532;-77
2023/01/07 02:42:55;;;;;;;28.65;20.55;;;12.00;99.90;;;;;;5018143;28;92999;-77
2023/01/07 02:45:38;;;;;;;29.48;21.65;;;12.00;99.90;;;;;;4996942;28;92534;-77
2023/01/07 02:48:14;;;;;;;27.10;20.30;;;12.00;99.90;;;;;;4999813;28;92539;-77
2023/01/07 02:50:41;;;;;;;25.77;18.58;;;11.90;99.90;;;;;;5016101;28;95746;-77
2023/01/07 02:53:12;;;;;;;27.15;20.67;;;11.90;99.90;;;;;;4999674;28;95619;-77
2023/01/07 02:56:10;;;;;;;28.40;20.95;;;12.00;99.90;;;;;;5016175;28;92452;-77
2023/01/07 02:58:52;;;;;;;25.98;19.17;;;12.00;99.90;;;;;;5016262;28;93001;-77
2023/01/07 03:01:37;;;;;;;27.65;19.80;;;11.90;99.90;;;;;;5016413;28;93266;-77
2023/01/07 03:04:24;;;;;;;24.55;20.50;;;12.00;99.90;;;;;;5015921;28;96206;-77
2023/01/07 03:07:25;;;;;;;24.83;18.65;;;12.00;99.90;;;;;;4999487;28;92377;-77
2023/01/07 03:09:52;;;;;;;25.55;20.23;;;12.00;99.90;;;;;;5016185;28;91780;-77
2023/01/07 03:12:31;;;;;;;27.88;21.10;;;11.90;99.90;;;;;;5015557;28;95678;-77
2023/01/07 03:15:28;;;;;;;23.50;19.08;;;12.00;99.90;;;;;;4999153;28;95456;-77
2023/01/07 03:18:03;;;;;;;23.00;18.70;;;12.00;99.90;;;;;;5014575;28;94908;-77
2023/01/07 03:20:34;;;;;;;23.20;18.77;;;12.00;99.90;;;;;;5015490;28;92540;-77
2023/01/07 03:23:06;;;;;;;24.35;18.73;;;12.00;99.90;;;;;;5015653;28;96143;-77
2023/01/07 03:25:39;;;;;;;22.77;18.58;;;12.00;99.90;;;;;;5015848;28;92948;-77
2023/01/07 03:28:08;;;;;;;24.02;17.67;;;12.00;99.90;;;;;;5017426;28;92393;-77
2023/01/07 03:30:37;;;;;;;22.73;18.23;;;12.00;99.90;;;;;;5017283;28;92383;-77
2023/01/07 03:33:10;;;;;;;24.88;18.63;;;12.00;99.90;;;;;;5015510;28;95463;-77
2023/01/07 03:35:39;;;;;;;23.42;19.50;;;12.10;99.90;;;;;;4999775;28;95831;-77
2023/01/07 03:38:07;;;;;;;21.90;17.92;;;12.00;99.90;;;;;;5015408;28;92467;-77
2023/01/07 03:40:36;;;;;;;20.38;17.88;;;12.00;99.90;;;;;;5017019;28;92526;-77
2023/01/07 03:43:04;;;;;;;22.10;17.67;;;12.10;99.90;;;;;;4997377;28;98267;-77
2023/01/07 03:45:31;;;;;;;21.25;17.90;;;12.10;99.90;;;;;;5015451;28;95375;-77
2023/01/07 03:47:59;;;;;;;23.55;19.33;;;12.10;99.90;;;;;;4998881;28;92423;-77
2023/01/07 03:50:32;;;;;;;;;;;12.10;99.90;;;;;;5000507;28;92339;-77
2023/01/07 03:52:59;;;;;;;21.45;17.05;;;12.00;99.90;;;;;;5016962;28;95691;-77
2023/01/07 03:55:28;;;;;;;21.88;18.10;;;12.00;99.90;;;;;;5014972;28;94994;-77
2023/01/07 03:57:56;;;;;;;22.10;16.33;;;12.10;99.90;;;;;;4982412;28;93236;-77
2023/01/07 04:00:24;;;;;;;20.73;16.45;;;12.10;99.90;;;;;;4998905;28;91696;-77
2023/01/07 04:02:58;;;;;;;;;;;12.10;99.90;;;;;;5015319;28;95914;-77
2023/01/07 04:05:29;;;;;;;18.50;16.35;;;12.00;99.90;;;;;;5016868;28;94933;-77
2023/01/07 04:07:57;;;;;;;19.50;16.95;;;11.90;99.90;;;;;;4997514;28;94876;-77
2023/01/07 04:10:28;;;;;;;20.17;17.17;;;12.00;99.90;;;;;;4999260;28;92716;-77
2023/01/07 04:12:55;;;;;;;20.77;16.73;;;12.00;99.90;;;;;;5014726;28;95810;-77
2023/01/07 04:15:22;;;;;;;20.00;17.20;;;12.00;99.90;;;;;;5014691;28;96012;-77
2023/01/07 04:17:49;;;;;;;17.17;13.35;;;12.00;99.90;;;;;;5015009;28;92391;-77
2023/01/07 04:20:17;;;;;;;19.35;15.95;;;12.00;99.90;;;;;;5014683;28;92609;-78
2023/01/07 04:22:44;;;;;;;20.23;17.98;;;12.00;99.90;;;;;;5014547;28;93198;-78
2023/01/07 04:25:12;;;;;;;20.83;16.00;;;12.00;99.90;;;;;;4998595;28;95254;-78
2023/01/07 04:27:39;;;;;;;21.13;17.00;;;12.00;99.90;;;;;;4998577;28;92484;-78
2023/01/07 04:30:06;;;;;;;19.23;16.85;;;12.00;99.90;;;;;;4998452;28;93161;-78
2023/01/07 04:32:34;;;;;;;19.27;16.23;;;11.90;99.90;;;;;;5013278;28;98294;-78
2023/01/07 04:35:01;;;;;;;19.10;15.77;;;11.90;99.90;;;;;;5014334;28;98097;-78
2023/01/07 04:37:29;;;;;;;19.80;16.50;;;11.90;99.90;;;;;;4998377;28;92404;-78
2023/01/07 04:39:56;;;;;;;20.20;16.02;;;11.90;99.90;;;;;;5014462;28;92534;-78
2023/01/07 04:42:23;;;;;;;17.92;15.70;;;11.80;99.90;;;;;;4998345;28;93474;-77
2023/01/07 04:44:52;;;;;;;17.52;14.82;;;11.80;99.90;;;;;;4998015;28;94323;-78
2023/01/07 04:47:19;;;;;;;19.73;15.63;;;11.80;99.90;;;;;;5014568;28;92472;-78
2023/01/07 04:49:46;;;;;;;16.15;14.45;;;11.80;99.90;;;;;;4998547;28;91640;-78
2023/01/07 04:52:13;;;;;;;19.75;15.95;;;11.80;99.90;;;;;;4998029;28;94494;-78
2023/01/07 04:54:41;;;;;;;19.77;15.60;;;11.80;99.90;;;;;;5014367;28;92606;-78
2023/01/07 04:57:08;;;;;;;16.83;14.63;;;11.80;99.90;;;;;;5014508;28;95206;-78
2023/01/07 04:59:36;;;;;;;17.83;14.60;;;11.80;99.90;;;;;;4998249;28;92604;-78
2023/01/07 05:02:03;;;;;;;19.02;15.15;;;11.90;99.90;;;;;;5013830;28;94278;-78
2023/01/07 05:04:30;;;;;;;15.20;13.63;;;11.90;99.90;;;;;;5014125;28;94905;-77
2023/01/07 05:06:58;;;;;;;18.48;15.25;;;11.90;99.90;;;;;;4997521;28;92518;-77
2023/01/07 05:09:26;;;;;;;18.35;14.40;;;11.90;99.90;;;;;;5014281;28;92456;-78
2023/01/07 05:11:53;;;;;;;17.23;14.40;;;11.80;99.90;;;;;;4997563;28;95398;-78
2023/01/07 05:14:21;;;;;;;16.98;13.18;;;11.90;99.90;;;;;;5014050;28;94935;-78
2023/01/07 05:16:51;;;;;;;15.23;12.88;;;11.90;99.90;;;;;;4998364;28;92407;-78
2023/01/07 05:19:20;;;;;;;15.43;12.50;;;11.90;99.90;;;;;;4997277;28;92585;-78
2023/01/07 05:21:48;;;;;;;14.57;11.93;;;11.90;99.90;;;;;;4995850;28;98643;-78
2023/01/07 05:24:16;;;;;;;15.75;13.25;;;11.90;99.90;;;;;;4997054;28;98083;-78
2023/01/07 05:26:44;;;;;;;16.05;13.68;;;11.90;99.90;;;;;;4997592;28;92603;-78
2023/01/07 05:29:12;;;;;;;18.85;13.30;;;11.90;99.90;;;;;;4997012;28;92525;-78
2023/01/07 05:31:41;;;;;;;16.17;13.02;;;11.90;99.90;;;;;;4997613;28;95428;-77
2023/01/07 05:34:08;;;;;;;14.35;12.75;;;11.90;99.90;;;;;;4996893;28;95417;-78
2023/01/07 05:36:36;;;;;;;15.82;12.13;;;11.90;99.90;;;;;;5013940;28;92461;-77
2023/01/07 05:39:04;;;;;;;16.00;12.07;;;11.90;99.90;;;;;;5015233;28;91786;-78
2023/01/07 05:41:32;;;;;;;13.40;12.00;;;11.90;99.90;;;;;;4997172;28;95773;-78
2023/01/07 05:43:59;;;;;;;12.48;11.18;;;11.90;99.90;;;;;;4997166;28;95456;-78
2023/01/07 05:46:27;;;;;;;14.55;11.55;;;11.90;99.90;;;;;;4996152;28;95421;-78
2023/01/07 05:48:54;;;;;;;12.98;11.57;;;11.90;99.90;;;;;;5013936;28;92420;-77
2023/01/07 05:51:21;;;;;;;14.85;11.82;;;12.00;99.90;;;;;;5013643;28;93545;-78
2023/01/07 05:53:47;;;;;;;14.00;11.60;;;11.90;99.90;;;;;;5014976;28;93388;-77
2023/01/07 05:56:14;;;;;;;12.23;10.77;;;12.00;99.90;;;;;;5014954;28;92403;-78
2023/01/07 05:58:41;;;;;;;14.02;11.50;;;12.00;99.90;;;;;;5013691;28;92459;-78
2023/01/07 06:01:08;;;;;;;12.20;10.95;;;12.00;99.90;;;;;;4996591;28;95767;-78
2023/01/07 06:03:35;;;;;;;13.13;11.43;;;12.00;99.90;;;;;;5014083;28;92957;-78
2023/01/07 06:06:05;;;;;;;11.75;10.50;;;12.00;99.90;;;;;;5013601;28;92528;-78
2023/01/07 06:08:34;;;;;;;11.82;10.60;;;12.00;99.90;;;;;;4997770;28;92445;-78
2023/01/07 06:11:01;;;;;;;11.82;10.13;;;12.00;99.90;;;;;;5012313;28;95676;-78
2023/01/07 06:13:28;;;;;;;12.27;10.88;;;12.00;99.90;;;;;;5013367;28;95636;-78
2023/01/07 06:16:07;;;;;;;10.63;8.90;;;12.00;99.90;;;;;;4996935;28;92579;-78
2023/01/07 06:18:35;;;;;;;12.65;9.57;;;12.00;99.90;;;;;;5013605;28;92371;-78
2023/01/07 06:21:02;;;;;;;11.30;9.48;;;12.00;99.90;;;;;;5013051;28;95460;-77
2023/01/07 06:23:30;;;;;;;13.57;10.27;;;12.00;99.90;;;;;;5013588;28;95496;-78
2023/01/07 06:25:57;;;;;;;10.77;9.68;;;12.00;99.90;;;;;;5013355;28;92868;-78
2023/01/07 06:28:24;;;;;;;11.50;10.02;;;12.00;99.90;;;;;;5015409;28;91647;-77
2023/01/07 06:30:51;;;;;;;10.75;9.30;;;12.00;99.90;;;;;;4996725;28;93159;-78
2023/01/07 06:33:18;;;;;;;12.48;9.57;;;12.00;99.90;;;;;;5013351;28;96137;-77
2023/01/07 06:35:45;;;;;;;13.20;9.20;;;12.00;99.90;;;;;;5012969;28;95585;-78
2023/01/07 06:38:13;;;;;;;11.10;9.13;;;12.00;99.90;;;;;;5013466;28;92395;-78
2023/01/07 06:40:40;;;;;;;10.55;8.20;;;12.00;99.90;;;;;;5013529;28;93255;-78
2023/01/07 06:43:07;;;;;;;10.18;8.32;;;12.10;99.90;;;;;;4980381;28;95154;-78
2023/01/07 06:45:34;;;;;;;10.30;8.98;;;12.00;99.90;;;;;;5015337;28;93037;-78
2023/01/07 06:48:01;;;;;;;10.02;8.95;;;12.00;99.90;;;;;;5017267;28;92555;-78
2023/01/07 06:50:28;;;;;;;9.75;8.32;;;12.00;99.90;;;;;;5000099;28;95902;-77
2023/01/07 06:52:55;;;;;;;8.40;7.40;;;12.00;99.90;;;;;;5000757;28;95871;-78
2023/01/07 06:55:23;;;;;;;9.98;7.50;;;12.10;99.90;;;;;;5017064;28;92496;-77
2023/01/07 06:57:50;;;;;;;9.77;8.07;;;12.10;99.90;;;;;;5000660;28;92556;-78
2023/01/07 07:00:18;;;;;;;8.55;7.65;;;12.10;99.90;;;;;;5015184;28;95579;-78
2023/01/07 07:02:45;;;;;;;8.30;7.43;;;12.00;99.90;;;;;;5016673;28;95749;-78
2023/01/07 07:05:12;;;;;;;10.00;8.13;;;12.10;99.90;;;;;;5000041;28;92491;-77
2023/01/07 07:07:39;;;;;;;10.38;7.57;;;12.00;99.90;;;;;;5017959;28;92399;-78
2023/01/07 07:10:07;;;;;;;8.85;7.40;;;12.10;99.90;;;;;;5016593;28;94573;-78
2023/01/07 07:12:35;;;;;;;8.50;7.63;;;12.10;99.90;;;;;;5017729;28;93091;-78
2023/01/07 07:15:04;;;;;;;9.68;7.90;;;12.10;99.90;;;;;;5000085;28;92924;-78
2023/01/07 07:17:31;;;;;;;9.40;7.57;;;12.10;99.90;;;;;;5018177;28;91837;-78
2023/01/07 07:19:58;;;;;;;7.40;6.70;;;12.10;99.90;;;;;;5017672;28;93579;-78
2023/01/07 07:22:26;;;;;;;9.65;7.25;;;12.10;99.90;;;;;;5020175;28;92505;-78
2023/01/07 07:24:53;;;;;;;7.55;6.82;;;12.10;99.90;;;;;;5018844;28;94864;-78
2023/01/07 07:27:20;;;;;;;7.47;6.78;;;12.10;99.90;;;;;;5002563;28;92515;-78
2023/01/07 07:29:47;;;;;;;8.68;6.45;;;12.10;99.90;;;;;;5003631;28;93073;-78
2023/01/07 07:32:14;;;;;;;8.25;7.20;;;12.10;99.90;;;;;;5037958;28;92857;-78
2023/01/07 07:34:41;;;;;;;7.10;6.40;;;12.10;99.90;;;;;;5019457;28;92449;-78
2023/01/07 07:37:08;;;;;;;7.47;6.78;;;12.10;99.90;;;;;;5036414;28;92399;-78
2023/01/07 07:39:36;;;;;;;7.53;6.88;;;12.10;99.90;;;;;;5019752;28;93606;-78
2023/01/07 07:42:04;;;;;;;10.65;6.22;;;12.10;99.90;;;;;;5019964;28;94173;-78
2023/01/07 07:44:31;;;;;;;8.30;6.65;;;12.10;99.90;;;;;;5037730;28;92808;-78
2023/01/07 07:46:58;;;;;;;6.45;5.80;;;12.10;99.90;;;;;;5020091;28;92438;-78
2023/01/07 07:49:25;;;;;;;7.75;6.90;;;12.10;99.90;;;;;;5001511;28;95767;-78
2023/01/07 07:51:52;;;;;;;8.73;6.65;;;12.10;99.90;;;;;;5002775;28;98059;-78
2023/01/07 07:54:19;;;;;;;7.65;6.68;;;12.10;99.90;;;;;;5002554;28;92642;-78
2023/01/07 07:56:49;;;;;;;6.80;6.10;;;12.10;99.90;;;;;;5003232;27;92594;-78
2023/01/07 07:59:16;;;;;;;6.82;6.28;;;12.10;99.90;;;;;;5018604;28;93286;-78
2023/01/07 08:01:43;;;;;;;8.40;5.85;;;12.10;99.90;;;;;;4985958;28;96288;-78
2023/01/07 08:04:10;;;;;;;6.78;5.50;;;12.10;99.90;;;;;;5019583;28;92426;-78
2023/01/07 08:06:37;;;;;;;7.72;6.15;;;12.10;99.90;;;;;;5019576;28;91782;-78
2023/01/07 08:09:04;;;;;;;6.38;5.75;;;12.10;99.90;;;;;;5036937;28;94098;-78
2023/01/07 08:11:32;;;;;;;6.47;5.45;;;12.10;99.90;;;;;;5019153;28;92962;-78
2023/01/07 08:13:59;;;;;;;6.82;6.03;;;12.10;99.90;;;;;;5036139;28;94748;-78
2023/01/07 08:16:26;;;;;;;6.72;5.82;;;12.10;99.90;;;;;;5036853;28;92411;-78
2023/01/07 08:18:53;;;;;;;6.65;5.90;;;12.10;99.90;;;;;;5018907;28;95915;-78
2023/01/07 08:21:20;;;;;;;5.88;5.38;;;12.10;99.90;;;;;;5001720;28;95232;-78
2023/01/07 08:23:50;;;;;;;6.63;5.70;;;12.10;99.90;;;;;;5019512;28;92505;-78
2023/01/07 08:26:16;;;;;;;7.07;6.03;;;12.10;99.90;;;;;;5019416;28;92514;-78
2023/01/07 08:28:44;;;;;;;7.82;6.28;;;12.10;99.90;;;;;;5035838;28;93339;-75
2023/01/07 08:31:12;;;;;;;7.82;5.93;;;12.10;99.90;;;;;;5002626;28;100746;-77
2023/01/07 08:33:39;;;;;;;6.85;6.03;;;12.10;99.90;;;;;;5036686;28;92339;-77
2023/01/07 08:36:08;;;;;;;6.90;6.20;;;12.10;99.90;;;;;;5036762;28;94006;-77
2023/01/07 08:38:54;;;;;;;7.05;5.65;;;12.10;99.90;;;;;;5019181;28;96029;-77
2023/01/07 08:41:22;;;;;;;6.10;5.60;;;12.20;99.90;;;;;;5018223;28;98048;-77
2023/01/07 08:43:50;;;;;;;6.40;5.32;;;12.20;99.90;;;;;;5001954;28;92475;-77
2023/01/07 08:46:17;;;;;;;5.65;5.15;;;12.20;99.90;;;;;;5018491;28;92405;-77
2023/01/07 08:48:44;;;;;;;5.60;5.10;;;12.30;99.90;;;;;;5001035;28;95987;-77
2023/01/07 08:51:11;;;;;;;6.72;4.80;;;12.30;99.90;;;;;;5002151;28;93041;-78
2023/01/07 08:53:38;;;;;;;4.40;3.95;;;12.40;99.90;;;;;;5036740;28;92799;-78
2023/01/07 08:56:06;;;;;;;4.65;4.25;;;12.30;99.90;;;;;;5018489;28;91703;-77
2023/01/07 08:58:33;;;;;;;5.40;4.63;;;12.40;99.90;;;;;;5018495;28;93359;-77
2023/01/07 09:01:02;;;;;;;6.00;4.30;;;12.40;99.90;;;;;;5001102;28;97017;-78
2023/01/07 09:03:29;;;;;;;4.60;4.20;;;12.40;99.90;;;;;;5016806;28;94805;-78
2023/01/07 09:05:56;;;;;;;4.90;4.50;;;12.40;99.90;;;;;;5018483;28;92482;-78
2023/01/07 09:08:23;;;;;;;4.47;4.10;;;12.50;99.90;;;;;;5018166;27;93357;-78
2023/01/07 09:10:50;;;;;;;5.28;4.13;;;12.50;99.90;;;;;;5000956;28;95812;-78
2023/01/07 09:13:17;;;;;;;4.60;3.80;;;12.50;99.90;;;;;;5018379;28;92477;-78
2023/01/07 09:15:44;;;;;;;5.22;3.92;;;12.50;99.90;;;;;;5017820;28;92447;-77
2023/01/07 09:18:11;;;;;;;4.47;3.80;;;12.50;99.90;;;;;;5018493;28;93190;-78
2023/01/07 09:20:39;;;;;;;5.03;4.05;;;12.60;99.90;;;;;;4984317;28;95883;-77
2023/01/07 09:23:06;;;;;;;5.95;3.90;;;12.60;99.90;;;;;;5017324;28;92473;-78
2023/01/07 09:25:33;;;;;;;5.30;3.97;;;12.70;99.90;;;;;;5035799;28;92421;-78
2023/01/07 09:28:00;;;;;;;4.40;3.40;;;12.70;99.90;;;;;;5016904;28;95752;-77
2023/01/07 09:30:27;;;;;;;4.85;4.28;;;12.70;99.90;;;;;;5001160;28;95480;-77
2023/01/07 09:32:54;;;;;;;6.20;3.78;;;12.70;99.90;;;;;;5017434;28;92589;-78
2023/01/07 09:35:21;;;;;;;3.75;3.33;;;12.70;99.90;;;;;;5017581;28;92527;-78
2023/01/07 09:37:48;;;;;;;3.97;3.67;;;12.80;99.90;;;;;;5001033;28;95712;-78
2023/01/07 09:40:37;;;;;;;3.55;3.25;;;12.70;99.90;;;;;;5001469;28;93140;-78
2023/01/07 09:43:16;;;;;;;3.42;3.15;;;12.80;99.90;;;;;;5018151;28;93280;-78
2023/01/07 09:45:52;;;;;;;3.95;3.65;;;12.80;99.90;;;;;;5019329;28;91679;-78
2023/01/07 09:48:46;;;;;;;4.97;3.97;;;12.90;99.90;;;;;;5017408;28;96032;-78
2023/01/07 09:51:40;;;;;;;3.70;3.30;;;12.90;99.90;;;;;;5000947;28;95884;-78
2023/01/07 09:54:35;;;;;;;3.50;3.20;;;13.00;99.90;;;;;;5016377;28;95620;-78
2023/01/07 09:57:03;;;;;;;4.90;3.13;;;13.00;99.90;;;;;;5035930;28;92440;-77
2023/01/07 09:59:31;;;;;;;3.17;2.80;;;12.90;99.90;;;;;;5000893;28;93256;-77
2023/01/07 10:02:10;;;;;;;3.63;3.10;;;12.80;99.90;;;;;;5017334;28;93301;-77
2023/01/07 10:04:58;;;;;;;3.40;3.03;;;12.80;99.90;;;;;;5033876;28;92550;-77
2023/01/07 10:07:39;;;;;;;3.50;3.20;;;12.90;99.90;;;;;;5017357;28;92382;-78
2023/01/07 10:10:40;;;;;;;3.83;3.05;;;12.90;99.90;;;;;;5016962;28;95923;-77
2023/01/07 10:13:37;;;;;;;4.38;2.42;;;12.90;99.90;;;;;;4950424;28;95720;-77
2023/01/07 10:16:21;;;;;;;2.92;2.60;;;12.80;99.90;;;;;;4947459;28;92627;-77
2023/01/07 10:19:03;;;;;;;4.93;2.80;;;12.90;99.90;;;;;;5035391;28;93122;-78
2023/01/07 10:21:52;;;;;;;2.92;2.60;;;12.90;99.90;;;;;;5035405;27;96004;-77
2023/01/07 10:24:22;;;;;;;3.10;2.40;;;13.00;99.90;;;;;;4992122;28;94249;-78
2023/01/07 10:26:55;;;;;;;2.75;2.30;;;13.00;99.90;;;;;;5038596;28;92612;-78
2023/01/07 10:29:34;;;;;;;2.40;2.20;;;13.10;99.90;;;;;;5020610;28;92476;-78
2023/01/07 10:32:10;;;;;;;2.75;2.35;;;13.10;99.90;;;;;;5038450;28;93340;-77
2023/01/07 10:34:52;;;;;;;2.20;2.10;;;13.20;99.90;;;;;;5020685;28;95324;-77
2023/01/07 10:37:28;;;;;;;2.20;2.10;;;13.30;99.90;;;;;;5020527;28;92444;-78
2023/01/07 10:40:24;;;;;;;2.97;2.20;;;13.20;99.90;;;;;;5003942;28;91809;-77
2023/01/07 10:43:25;;;;;;;2.88;2.05;;;13.30;99.90;;;;;;5038246;28;93604;-77
2023/01/07 10:46:28;;;;;;;2.25;1.92;;;13.30;99.90;;;;;;4999416;28;95732;-77
2023/01/07 10:49:16;;;;;;;2.40;1.90;;;13.30;99.90;;;;;;5019386;28;95384;-77
2023/01/07 10:51:53;;;;;;;2.13;2.00;;;13.30;99.90;;;;;;5038459;28;92451;-78
2023/01/07 10:54:28;;;;;;;6.00;2.08;;;13.30;99.90;;;;;;5003297;28;95942;-78
2023/01/07 10:57:19;;;;;;;4.00;1.70;;;13.20;99.90;;;;;;5036555;28;96044;-75
2023/01/07 10:59:53;;;;;;;1.98;1.80;;;13.30;99.90;;;;;;5038483;28;92544;-75
2023/01/07 11:02:22;;;;;;;1.73;1.63;;;13.30;99.90;;;;;;5020605;28;92492;-76
2023/01/07 11:04:51;;;;;;;1.70;1.60;;;13.30;99.90;;;;;;5037782;28;93057;-77
2023/01/07 11:07:42;;;;;;;1.90;1.63;;;13.30;99.90;;;;;;5020224;28;94393;-76
2023/01/07 11:10:23;;;;;;;2.17;1.65;;;13.30;99.90;;;;;;5020046;28;92394;-78
2023/01/07 11:12:49;;;;;;;1.95;1.70;;;13.20;99.90;;;;;;5019842;28;92470;-77
2023/01/07 11:15:44;;;;;;;1.98;1.83;;;13.20;99.90;;;;;;5018521;28;97163;-78
2023/01/07 11:18:23;;;;;;;1.88;1.50;;;13.30;99.90;;;;;;5020449;28;95414;-78
2023/01/07 11:20:52;;;;;;;1.92;1.83;;;13.30;99.90;;;;;;5019826;28;92642;-77
2023/01/07 11:23:35;;;;;;;1.73;1.63;;;13.30;99.90;;;;;;5037701;28;92586;-77
2023/01/07 11:26:12;;;;;;;1.70;1.60;;;13.40;99.90;;;;;;5019485;28;93598;-77
2023/01/07 11:28:51;;;;;;;2.85;1.80;;;13.40;99.90;;;;;;5019444;28;95802;-77
2023/01/07 11:31:19;;;;;;;1.65;1.55;;;13.40;99.90;;;;;;5019865;28;93034;-77
2023/01/07 11:33:50;;;;;;;1.70;1.60;;;13.50;99.90;;;;;;5020145;28;91698;-77
2023/01/07 11:36:42;;;;;;;2.80;1.80;;;13.50;99.90;;;;;;5004408;28;95855;-77
2023/01/07 11:39:33;;;;;;;2.30;2.00;;;13.50;99.90;;;;;;5019476;28;92927;-77
2023/01/07 11:45:14;;;;;;;1.98;1.60;;;13.60;99.90;;;;;;5019342;28;92472;-77
2023/01/07 11:48:09;;;;;;;2.60;1.70;;;13.60;99.90;;;;;;5037507;28;93203;-77
2023/01/07 11:50:42;;;;;;;1.70;1.60;;;13.60;99.90;;;;;;5033555;28;95424;-77
2023/01/07 11:53:12;;;;;;;2.17;1.55;;;13.50;99.90;;;;;;5019163;28;92493;-77
2023/01/07 11:55:54;;;;;;;2.60;1.60;;;13.40;99.90;;;;;;5037563;28;92561;-77
2023/01/07 11:58:21;;;;;;;2.50;1.77;;;13.40;99.90;;;;;;5004969;28;93251;-77
2023/01/07 12:01:10;;;;;;;1.75;1.50;;;13.40;99.90;;;;;;5019107;28;95580;-77
2023/01/07 12:03:40;;;;;;;1.63;1.30;;;13.50;99.90;;;;;;5037929;28;92418;-77
2023/01/07 12:06:27;;;;;;;2.28;1.48;;;13.50;99.90;;;;;;5037050;28;92423;-77
2023/01/07 12:09:14;;;;;;;2.20;1.70;;;13.60;99.90;;;;;;5017289;28;98513;-77
2023/01/07 12:11:43;;;;;;;2.22;1.60;;;13.60;99.90;;;;;;5018775;28;97060;-77
2023/01/07 12:14:15;;;;;;;2.35;1.85;;;13.60;99.90;;;;;;5036856;28;92390;-77
2023/01/07 12:16:44;;;;;;;1.83;1.48;;;13.70;99.90;;;;;;5018871;28;92956;-78
2023/01/07 12:19:36;;;;;;;2.35;1.50;;;13.70;99.90;;;;;;5019057;28;93485;-77
2023/01/07 12:22:18;;;;;;;1.55;1.38;;;13.80;99.90;;;;;;5018331;28;95698;-77
2023/01/07 12:25:07;;;;;;;1.50;1.40;;;13.80;99.90;;;;;;5002315;28;92568;-78
2023/01/07 12:27:55;;;;;;;1.80;1.70;;;13.80;99.90;;;;;;5019618;28;92543;-78
2023/01/07 12:30:34;;;;;;;2.75;2.55;;;13.90;99.90;;;;;;4996012;28;93617;-76
2023/01/07 12:33:33;;;;;;;2.10;1.95;;;13.90;99.90;;;;;;5034999;28;95867;-76
2023/01/07 12:36:10;;;;;;;2.20;1.70;;;13.90;99.90;;;;;;4957229;28;94903;-76
2023/01/07 12:38:46;;;;;;;1.45;1.30;;;13.80;99.90;;;;;;5037121;28;92430;-76
2023/01/07 12:41:22;;;;;;;1.50;1.40;;;13.80;99.90;;;;;;5001561;28;95826;-77
2023/01/07 12:43:59;;;;;;;3.03;1.60;;;13.80;99.90;;;;;;5036040;27;93100;-77
2023/01/07 12:46:41;;;;;;;2.33;1.98;;;13.80;99.90;;;;;;5036402;28;92700;-78
2023/01/07 12:49:35;;;;;;;2.20;1.80;;;13.70;99.90;;;;;;5036469;28;92471;-78
2023/01/07 12:52:15;;;;;;;2.95;1.60;;;13.70;99.90;;;;;;5025413;28;93347;-77
2023/01/07 12:54:51;;;;;;;3.38;1.67;;;13.50;99.90;;;;;;5037008;28;93260;-77
2023/01/07 12:57:20;;;;;;;1.70;1.60;;;13.50;99.90;;;;;;5036319;28;92419;-77
2023/01/07 12:59:55;;;;;;;2.30;1.88;;;13.50;99.90;;;;;;5018262;28;92434;-77
2023/01/07 13:02:50;;;;;;;1.95;1.77;;;13.40;99.90;;;;;;5016634;28;98369;-78
2023/01/07 13:05:40;;;;;;;1.98;1.83;;;13.40;99.90;;;;;;5017435;28;98501;-77
2023/01/07 13:08:33;;;;;;;2.65;1.80;;;13.40;99.90;;;;;;5036416;28;92507;-78
2023/01/07 13:14:22;;;;;;;3.83;1.80;;;13.40;99.90;;;;;;5029640;28;93636;-77
2023/01/07 13:16:49;;;;;;;2.60;2.00;;;13.30;99.90;;;;;;4998403;28;96167;-77